sensor_id;sensor_type;location;lat;lon;timestamp;P1;durP1;ratioP1;P2;durP2;ratioP2
20671;SDS011;10495;50.922;4.760;2023-03-09T00:00:45;25.93;;;13.90;;
20671;SDS011;10495;50.922;4.760;2023-03-09T00:03:10;32.43;;;16.03;;
20671;SDS011;10495;50.922;4.760;2023-03-09T00:05:44;26.77;;;14.77;;
20671;SDS011;10495;50.922;4.760;2023-03-09T00:08:20;32.70;;;16.10;;
20671;SDS011;10495;50.922;4.760;2023-03-09T00:10:45;28.57;;;14.17;;
20671;SDS011;10495;50.922;4.760;2023-03-09T00:13:15;30.83;;;15.33;;
20671;SDS011;10495;50.922;4.760;2023-03-09T00:15:41;27.27;;;12.93;;
20671;SDS011;10495;50.922;4.760;2023-03-09T00:18:06;26.97;;;14.50;;
20671;SDS011;10495;50.922;4.760;2023-03-09T00:20:32;36.83;;;17.83;;
20671;SDS011;10495;50.922;4.760;2023-03-09T00:22:57;33.53;;;18.03;;
20671;SDS011;10495;50.922;4.760;2023-03-09T00:25:29;37.33;;;17.63;;
20671;SDS011;10495;50.922;4.760;2023-03-09T00:27:54;32.47;;;16.77;;
20671;SDS011;10495;50.922;4.760;2023-03-09T00:30:20;38.17;;;18.57;;
20671;SDS011;10495;50.922;4.760;2023-03-09T00:32:46;36.23;;;16.13;;
20671;SDS011;10495;50.922;4.760;2023-03-09T00:35:12;31.77;;;15.80;;
20671;SDS011;10495;50.922;4.760;2023-03-09T00:37:38;32.60;;;15.07;;
20671;SDS011;10495;50.922;4.760;2023-03-09T00:40:04;39.33;;;17.60;;
20671;SDS011;10495;50.922;4.760;2023-03-09T00:42:32;35.40;;;17.23;;
20671;SDS011;10495;50.922;4.760;2023-03-09T00:44:58;40.20;;;17.60;;
20671;SDS011;10495;50.922;4.760;2023-03-09T00:47:25;36.03;;;17.83;;
20671;SDS011;10495;50.922;4.760;2023-03-09T00:49:51;34.33;;;16.50;;
20671;SDS011;10495;50.922;4.760;2023-03-09T00:52:17;38.40;;;18.33;;
20671;SDS011;10495;50.922;4.760;2023-03-09T00:54:43;38.73;;;17.73;;
20671;SDS011;10495;50.922;4.760;2023-03-09T00:57:08;43.40;;;20.27;;
20671;SDS011;10495;50.922;4.760;2023-03-09T00:59:34;44.37;;;20.07;;
20671;SDS011;10495;50.922;4.760;2023-03-09T01:01:59;44.80;;;20.17;;
20671;SDS011;10495;50.922;4.760;2023-03-09T01:04:25;45.50;;;20.87;;
20671;SDS011;10495;50.922;4.760;2023-03-09T01:06:54;47.40;;;20.57;;
20671;SDS011;10495;50.922;4.760;2023-03-09T01:09:20;45.70;;;21.67;;
20671;SDS011;10495;50.922;4.760;2023-03-09T01:11:46;54.77;;;22.63;;
20671;SDS011;10495;50.922;4.760;2023-03-09T01:14:12;59.10;;;23.30;;
20671;SDS011;10495;50.922;4.760;2023-03-09T01:16:37;50.80;;;22.60;;
20671;SDS011;10495;50.922;4.760;2023-03-09T01:19:03;52.43;;;22.50;;
20671;SDS011;10495;50.922;4.760;2023-03-09T01:21:29;47.17;;;21.43;;
20671;SDS011;10495;50.922;4.760;2023-03-09T01:23:54;43.83;;;20.67;;
20671;SDS011;10495;50.922;4.760;2023-03-09T01:26:20;47.07;;;21.57;;
20671;SDS011;10495;50.922;4.760;2023-03-09T01:28:46;46.00;;;19.97;;
20671;SDS011;10495;50.922;4.760;2023-03-09T01:31:13;41.37;;;19.77;;
20671;SDS011;10495;50.922;4.760;2023-03-09T01:33:39;43.33;;;18.10;;
20671;SDS011;10495;50.922;4.760;2023-03-09T01:36:06;46.00;;;20.77;;
20671;SDS011;10495;50.922;4.760;2023-03-09T01:38:33;43.63;;;21.03;;
20671;SDS011;10495;50.922;4.760;2023-03-09T01:40:59;45.50;;;19.60;;
20671;SDS011;10495;50.922;4.760;2023-03-09T01:48:59;42.27;;;19.87;;
20671;SDS011;10495;50.922;4.760;2023-03-09T01:55:12;46.53;;;21.63;;
20671;SDS011;10495;50.922;4.760;2023-03-09T01:57:34;42.67;;;20.10;;
20671;SDS011;10495;50.922;4.760;2023-03-09T02:00:05;44.10;;;21.67;;
20671;SDS011;10495;50.922;4.760;2023-03-09T02:02:34;46.87;;;21.17;;
20671;SDS011;10495;50.922;4.760;2023-03-09T02:05:02;46.57;;;21.10;;
20671;SDS011;10495;50.922;4.760;2023-03-09T02:07:32;45.93;;;21.47;;
20671;SDS011;10495;50.922;4.760;2023-03-09T02:10:04;39.83;;;20.40;;
20671;SDS011;10495;50.922;4.760;2023-03-09T02:12:41;50.00;;;23.13;;
20671;SDS011;10495;50.922;4.760;2023-03-09T02:15:07;55.80;;;25.57;;
20671;SDS011;10495;50.922;4.760;2023-03-09T02:17:33;47.27;;;21.77;;
20671;SDS011;10495;50.922;4.760;2023-03-09T02:22:40;51.57;;;23.27;;
20671;SDS011;10495;50.922;4.760;2023-03-09T02:27:58;46.03;;;20.43;;
20671;SDS011;10495;50.922;4.760;2023-03-09T02:30:25;55.53;;;24.53;;
20671;SDS011;10495;50.922;4.760;2023-03-09T02:33:09;50.93;;;24.13;;
20671;SDS011;10495;50.922;4.760;2023-03-09T02:35:37;55.67;;;24.13;;
20671;SDS011;10495;50.922;4.760;2023-03-09T02:38:02;51.17;;;25.10;;
20671;SDS011;10495;50.922;4.760;2023-03-09T02:40:32;55.63;;;25.57;;
20671;SDS011;10495;50.922;4.760;2023-03-09T02:43:02;56.43;;;24.87;;
20671;SDS011;10495;50.922;4.760;2023-03-09T02:45:29;56.23;;;24.00;;
20671;SDS011;10495;50.922;4.760;2023-03-09T02:47:56;51.50;;;23.00;;
20671;SDS011;10495;50.922;4.760;2023-03-09T02:50:22;53.83;;;23.37;;
20671;SDS011;10495;50.922;4.760;2023-03-09T02:52:48;51.17;;;22.50;;
20671;SDS011;10495;50.922;4.760;2023-03-09T02:55:14;51.20;;;23.60;;
20671;SDS011;10495;50.922;4.760;2023-03-09T02:57:40;46.67;;;22.33;;
20671;SDS011;10495;50.922;4.760;2023-03-09T03:00:07;49.27;;;22.43;;
20671;SDS011;10495;50.922;4.760;2023-03-09T03:02:34;44.13;;;20.60;;
20671;SDS011;10495;50.922;4.760;2023-03-09T03:05:00;41.77;;;19.73;;
20671;SDS011;10495;50.922;4.760;2023-03-09T03:07:25;54.10;;;23.73;;
20671;SDS011;10495;50.922;4.760;2023-03-09T03:09:51;53.70;;;25.50;;
20671;SDS011;10495;50.922;4.760;2023-03-09T03:12:16;42.27;;;21.63;;
20671;SDS011;10495;50.922;4.760;2023-03-09T03:14:43;49.10;;;22.33;;
20671;SDS011;10495;50.922;4.760;2023-03-09T03:17:09;41.90;;;21.17;;
20671;SDS011;10495;50.922;4.760;2023-03-09T03:19:35;50.73;;;23.83;;
20671;SDS011;10495;50.922;4.760;2023-03-09T03:22:02;51.97;;;23.33;;
20671;SDS011;10495;50.922;4.760;2023-03-09T03:24:28;46.00;;;20.77;;
20671;SDS011;10495;50.922;4.760;2023-03-09T03:26:54;44.87;;;23.03;;
20671;SDS011;10495;50.922;4.760;2023-03-09T03:29:20;45.77;;;21.47;;
20671;SDS011;10495;50.922;4.760;2023-03-09T03:31:45;48.70;;;22.27;;
20671;SDS011;10495;50.922;4.760;2023-03-09T03:34:11;52.50;;;24.27;;
20671;SDS011;10495;50.922;4.760;2023-03-09T03:36:37;46.57;;;21.23;;
20671;SDS011;10495;50.922;4.760;2023-03-09T03:39:02;44.70;;;19.63;;
20671;SDS011;10495;50.922;4.760;2023-03-09T03:41:30;50.30;;;22.60;;
20671;SDS011;10495;50.922;4.760;2023-03-09T03:43:56;44.10;;;21.13;;
20671;SDS011;10495;50.922;4.760;2023-03-09T03:46:21;45.30;;;22.77;;
20671;SDS011;10495;50.922;4.760;2023-03-09T03:48:47;46.23;;;22.60;;
20671;SDS011;10495;50.922;4.760;2023-03-09T03:51:13;48.47;;;21.77;;
20671;SDS011;10495;50.922;4.760;2023-03-09T03:53:38;46.37;;;21.57;;
20671;SDS011;10495;50.922;4.760;2023-03-09T03:56:04;40.43;;;19.73;;
20671;SDS011;10495;50.922;4.760;2023-03-09T03:58:30;45.13;;;19.77;;
20671;SDS011;10495;50.922;4.760;2023-03-09T04:00:56;45.90;;;21.40;;
20671;SDS011;10495;50.922;4.760;2023-03-09T04:03:22;44.20;;;20.50;;
20671;SDS011;10495;50.922;4.760;2023-03-09T04:05:48;45.27;;;21.37;;
20671;SDS011;10495;50.922;4.760;2023-03-09T04:08:13;41.57;;;20.57;;
20671;SDS011;10495;50.922;4.760;2023-03-09T04:10:39;43.57;;;19.57;;
20671;SDS011;10495;50.922;4.760;2023-03-09T04:13:05;44.33;;;20.07;;
20671;SDS011;10495;50.922;4.760;2023-03-09T04:15:34;43.37;;;20.77;;
20671;SDS011;10495;50.922;4.760;2023-03-09T04:18:00;44.40;;;21.40;;
20671;SDS011;10495;50.922;4.760;2023-03-09T04:20:26;38.90;;;19.63;;
20671;SDS011;10495;50.922;4.760;2023-03-09T04:22:51;40.43;;;19.33;;
20671;SDS011;10495;50.922;4.760;2023-03-09T04:25:17;34.07;;;16.73;;
20671;SDS011;10495;50.922;4.760;2023-03-09T04:27:43;42.53;;;18.47;;
20671;SDS011;10495;50.922;4.760;2023-03-09T04:30:09;45.33;;;19.20;;
20671;SDS011;10495;50.922;4.760;2023-03-09T04:32:36;47.07;;;21.67;;
20671;SDS011;10495;50.922;4.760;2023-03-09T04:35:01;42.33;;;20.47;;
20671;SDS011;10495;50.922;4.760;2023-03-09T04:37:27;44.20;;;21.27;;
20671;SDS011;10495;50.922;4.760;2023-03-09T04:39:53;42.87;;;20.40;;
20671;SDS011;10495;50.922;4.760;2023-03-09T04:42:19;38.37;;;18.70;;
20671;SDS011;10495;50.922;4.760;2023-03-09T04:44:44;37.07;;;18.50;;
20671;SDS011;10495;50.922;4.760;2023-03-09T04:47:11;37.47;;;17.03;;
20671;SDS011;10495;50.922;4.760;2023-03-09T04:49:38;43.57;;;19.97;;
20671;SDS011;10495;50.922;4.760;2023-03-09T04:52:07;35.70;;;18.63;;
20671;SDS011;10495;50.922;4.760;2023-03-09T04:54:33;41.60;;;20.37;;
20671;SDS011;10495;50.922;4.760;2023-03-09T04:56:58;41.27;;;18.97;;
20671;SDS011;10495;50.922;4.760;2023-03-09T04:59:24;37.80;;;17.70;;
20671;SDS011;10495;50.922;4.760;2023-03-09T05:01:50;40.40;;;18.43;;
20671;SDS011;10495;50.922;4.760;2023-03-09T05:04:15;41.27;;;18.27;;
20671;SDS011;10495;50.922;4.760;2023-03-09T05:06:41;40.90;;;18.57;;
20671;SDS011;10495;50.922;4.760;2023-03-09T05:09:07;34.10;;;15.93;;
20671;SDS011;10495;50.922;4.760;2023-03-09T05:11:32;39.93;;;18.33;;
20671;SDS011;10495;50.922;4.760;2023-03-09T05:13:58;39.27;;;17.00;;
20671;SDS011;10495;50.922;4.760;2023-03-09T05:16:24;40.20;;;17.53;;
20671;SDS011;10495;50.922;4.760;2023-03-09T05:18:50;36.87;;;15.60;;
20671;SDS011;10495;50.922;4.760;2023-03-09T05:21:16;36.17;;;15.83;;
20671;SDS011;10495;50.922;4.760;2023-03-09T05:23:42;31.53;;;15.67;;
20671;SDS011;10495;50.922;4.760;2023-03-09T05:26:09;33.13;;;15.70;;
20671;SDS011;10495;50.922;4.760;2023-03-09T05:28:35;29.40;;;14.07;;
20671;SDS011;10495;50.922;4.760;2023-03-09T05:31:06;35.10;;;15.67;;
20671;SDS011;10495;50.922;4.760;2023-03-09T05:33:32;27.47;;;13.13;;
20671;SDS011;10495;50.922;4.760;2023-03-09T05:35:58;24.60;;;12.97;;
20671;SDS011;10495;50.922;4.760;2023-03-09T05:38:23;31.27;;;14.70;;
20671;SDS011;10495;50.922;4.760;2023-03-09T05:40:49;27.97;;;13.77;;
20671;SDS011;10495;50.922;4.760;2023-03-09T05:43:15;25.67;;;12.60;;
20671;SDS011;10495;50.922;4.760;2023-03-09T05:45:40;27.83;;;14.00;;
20671;SDS011;10495;50.922;4.760;2023-03-09T05:48:06;25.73;;;13.43;;
20671;SDS011;10495;50.922;4.760;2023-03-09T05:50:32;31.77;;;13.77;;
20671;SDS011;10495;50.922;4.760;2023-03-09T05:52:58;25.33;;;12.63;;
20671;SDS011;10495;50.922;4.760;2023-03-09T05:55:23;30.50;;;14.03;;
20671;SDS011;10495;50.922;4.760;2023-03-09T05:57:50;26.93;;;13.83;;
20671;SDS011;10495;50.922;4.760;2023-03-09T06:00:16;30.20;;;14.73;;
20671;SDS011;10495;50.922;4.760;2023-03-09T06:02:42;33.50;;;14.20;;
20671;SDS011;10495;50.922;4.760;2023-03-09T06:05:08;31.93;;;15.20;;
20671;SDS011;10495;50.922;4.760;2023-03-09T06:07:33;27.93;;;14.13;;
20671;SDS011;10495;50.922;4.760;2023-03-09T06:09:59;33.47;;;15.33;;
20671;SDS011;10495;50.922;4.760;2023-03-09T06:12:25;37.10;;;15.53;;
20671;SDS011;10495;50.922;4.760;2023-03-09T06:14:51;38.60;;;16.67;;
20671;SDS011;10495;50.922;4.760;2023-03-09T06:17:17;27.53;;;13.60;;
20671;SDS011;10495;50.922;4.760;2023-03-09T06:19:44;31.70;;;14.67;;
20671;SDS011;10495;50.922;4.760;2023-03-09T06:22:09;32.67;;;14.57;;
20671;SDS011;10495;50.922;4.760;2023-03-09T06:24:35;33.50;;;14.40;;
20671;SDS011;10495;50.922;4.760;2023-03-09T06:27:01;33.07;;;15.00;;
20671;SDS011;10495;50.922;4.760;2023-03-09T06:29:27;35.10;;;15.30;;
20671;SDS011;10495;50.922;4.760;2023-03-09T06:31:53;36.53;;;16.23;;
20671;SDS011;10495;50.922;4.760;2023-03-09T06:34:19;34.20;;;15.10;;
20671;SDS011;10495;50.922;4.760;2023-03-09T06:36:45;32.60;;;15.17;;
20671;SDS011;10495;50.922;4.760;2023-03-09T06:39:11;34.40;;;15.50;;
20671;SDS011;10495;50.922;4.760;2023-03-09T06:41:36;36.53;;;16.70;;
20671;SDS011;10495;50.922;4.760;2023-03-09T06:44:02;35.00;;;16.70;;
20671;SDS011;10495;50.922;4.760;2023-03-09T06:46:28;37.80;;;16.33;;
20671;SDS011;10495;50.922;4.760;2023-03-09T06:48:55;32.50;;;14.13;;
20671;SDS011;10495;50.922;4.760;2023-03-09T06:51:21;33.03;;;15.90;;
20671;SDS011;10495;50.922;4.760;2023-03-09T06:53:46;29.70;;;14.47;;
20671;SDS011;10495;50.922;4.760;2023-03-09T06:56:13;34.40;;;15.70;;
20671;SDS011;10495;50.922;4.760;2023-03-09T06:58:39;32.93;;;15.07;;
20671;SDS011;10495;50.922;4.760;2023-03-09T07:01:09;33.97;;;15.57;;
20671;SDS011;10495;50.922;4.760;2023-03-09T07:03:36;32.63;;;16.47;;
20671;SDS011;10495;50.922;4.760;2023-03-09T07:06:02;35.27;;;16.70;;
20671;SDS011;10495;50.922;4.760;2023-03-09T07:08:28;30.57;;;15.33;;
20671;SDS011;10495;50.922;4.760;2023-03-09T07:10:54;29.97;;;14.23;;
20671;SDS011;10495;50.922;4.760;2023-03-09T07:13:20;32.73;;;14.83;;
20671;SDS011;10495;50.922;4.760;2023-03-09T07:15:46;41.50;;;16.97;;
20671;SDS011;10495;50.922;4.760;2023-03-09T07:18:11;34.60;;;15.70;;
20671;SDS011;10495;50.922;4.760;2023-03-09T07:20:38;37.33;;;15.03;;
20671;SDS011;10495;50.922;4.760;2023-03-09T07:23:04;31.17;;;14.23;;
20671;SDS011;10495;50.922;4.760;2023-03-09T07:25:31;27.70;;;14.60;;
20671;SDS011;10495;50.922;4.760;2023-03-09T07:27:59;29.37;;;13.43;;
20671;SDS011;10495;50.922;4.760;2023-03-09T07:30:26;31.83;;;14.60;;
20671;SDS011;10495;50.922;4.760;2023-03-09T07:32:53;28.77;;;13.27;;
20671;SDS011;10495;50.922;4.760;2023-03-09T07:35:19;33.60;;;14.63;;
20671;SDS011;10495;50.922;4.760;2023-03-09T07:37:44;29.13;;;14.43;;
20671;SDS011;10495;50.922;4.760;2023-03-09T07:40:10;34.00;;;15.33;;
20671;SDS011;10495;50.922;4.760;2023-03-09T07:42:36;34.03;;;14.30;;
20671;SDS011;10495;50.922;4.760;2023-03-09T07:45:02;33.57;;;15.60;;
20671;SDS011;10495;50.922;4.760;2023-03-09T07:47:28;33.93;;;15.50;;
20671;SDS011;10495;50.922;4.760;2023-03-09T07:49:53;33.90;;;14.43;;
20671;SDS011;10495;50.922;4.760;2023-03-09T07:52:19;32.80;;;15.20;;
20671;SDS011;10495;50.922;4.760;2023-03-09T07:54:45;36.27;;;17.00;;
20671;SDS011;10495;50.922;4.760;2023-03-09T07:57:14;37.77;;;16.67;;
20671;SDS011;10495;50.922;4.760;2023-03-09T07:59:40;38.00;;;17.83;;
20671;SDS011;10495;50.922;4.760;2023-03-09T08:02:05;37.47;;;16.47;;
20671;SDS011;10495;50.922;4.760;2023-03-09T08:04:31;33.57;;;15.60;;
20671;SDS011;10495;50.922;4.760;2023-03-09T08:06:58;39.70;;;15.97;;
20671;SDS011;10495;50.922;4.760;2023-03-09T08:09:24;41.17;;;17.73;;
20671;SDS011;10495;50.922;4.760;2023-03-09T08:11:49;42.50;;;18.10;;
20671;SDS011;10495;50.922;4.760;2023-03-09T08:14:18;38.23;;;17.13;;
20671;SDS011;10495;50.922;4.760;2023-03-09T08:16:43;44.40;;;17.30;;
20671;SDS011;10495;50.922;4.760;2023-03-09T08:19:09;37.20;;;16.13;;
20671;SDS011;10495;50.922;4.760;2023-03-09T08:21:36;39.87;;;15.90;;
20671;SDS011;10495;50.922;4.760;2023-03-09T08:24:02;44.13;;;18.90;;
20671;SDS011;10495;50.922;4.760;2023-03-09T08:26:28;43.77;;;17.53;;
20671;SDS011;10495;50.922;4.760;2023-03-09T08:28:54;41.20;;;17.50;;
20671;SDS011;10495;50.922;4.760;2023-03-09T08:31:19;42.90;;;17.20;;
20671;SDS011;10495;50.922;4.760;2023-03-09T08:33:45;43.27;;;17.97;;
20671;SDS011;10495;50.922;4.760;2023-03-09T08:36:15;32.77;;;13.87;;
20671;SDS011;10495;50.922;4.760;2023-03-09T08:38:43;44.03;;;18.23;;
20671;SDS011;10495;50.922;4.760;2023-03-09T08:41:10;34.63;;;15.80;;
20671;SDS011;10495;50.922;4.760;2023-03-09T08:43:37;42.00;;;18.03;;
20671;SDS011;10495;50.922;4.760;2023-03-09T08:46:03;49.57;;;17.93;;
20671;SDS011;10495;50.922;4.760;2023-03-09T08:48:29;38.90;;;16.43;;
20671;SDS011;10495;50.922;4.760;2023-03-09T08:50:54;39.53;;;16.80;;
20671;SDS011;10495;50.922;4.760;2023-03-09T08:53:21;43.33;;;16.53;;
20671;SDS011;10495;50.922;4.760;2023-03-09T08:55:47;43.27;;;18.17;;
20671;SDS011;10495;50.922;4.760;2023-03-09T08:58:13;43.77;;;18.63;;
20671;SDS011;10495;50.922;4.760;2023-03-09T09:00:38;36.53;;;16.17;;
20671;SDS011;10495;50.922;4.760;2023-03-09T09:03:04;41.60;;;16.53;;
20671;SDS011;10495;50.922;4.760;2023-03-09T09:05:30;48.53;;;17.23;;
20671;SDS011;10495;50.922;4.760;2023-03-09T09:07:56;39.37;;;16.63;;
20671;SDS011;10495;50.922;4.760;2023-03-09T09:10:21;35.20;;;14.80;;
20671;SDS011;10495;50.922;4.760;2023-03-09T09:12:47;40.77;;;17.27;;
20671;SDS011;10495;50.922;4.760;2023-03-09T09:15:13;39.40;;;17.50;;
20671;SDS011;10495;50.922;4.760;2023-03-09T09:17:40;33.77;;;15.67;;
20671;SDS011;10495;50.922;4.760;2023-03-09T09:20:07;46.37;;;18.03;;
20671;SDS011;10495;50.922;4.760;2023-03-09T09:22:33;42.23;;;17.93;;
20671;SDS011;10495;50.922;4.760;2023-03-09T09:24:59;37.90;;;18.30;;
20671;SDS011;10495;50.922;4.760;2023-03-09T09:27:25;35.87;;;17.37;;
20671;SDS011;10495;50.922;4.760;2023-03-09T09:29:51;41.47;;;16.83;;
20671;SDS011;10495;50.922;4.760;2023-03-09T09:32:21;36.87;;;17.53;;
20671;SDS011;10495;50.922;4.760;2023-03-09T09:34:46;35.70;;;17.27;;
20671;SDS011;10495;50.922;4.760;2023-03-09T09:37:12;41.93;;;19.50;;
20671;SDS011;10495;50.922;4.760;2023-03-09T09:39:40;42.10;;;21.97;;
20671;SDS011;10495;50.922;4.760;2023-03-09T09:42:16;39.77;;;17.87;;
20671;SDS011;10495;50.922;4.760;2023-03-09T09:44:54;44.40;;;19.40;;
20671;SDS011;10495;50.922;4.760;2023-03-09T09:47:23;45.13;;;21.23;;
20671;SDS011;10495;50.922;4.760;2023-03-09T09:49:54;43.10;;;18.27;;
20671;SDS011;10495;50.922;4.760;2023-03-09T09:52:35;42.30;;;18.93;;
20671;SDS011;10495;50.922;4.760;2023-03-09T09:55:22;38.67;;;18.60;;
20671;SDS011;10495;50.922;4.760;2023-03-09T10:00:55;43.37;;;18.63;;
20671;SDS011;10495;50.922;4.760;2023-03-09T10:03:36;35.23;;;16.97;;
20671;SDS011;10495;50.922;4.760;2023-03-09T10:06:17;52.20;;;24.23;;
20671;SDS011;10495;50.922;4.760;2023-03-09T10:08:52;40.50;;;18.47;;
20671;SDS011;10495;50.922;4.760;2023-03-09T10:13:48;43.20;;;17.90;;
20671;SDS011;10495;50.922;4.760;2023-03-09T10:16:33;36.80;;;15.90;;
20671;SDS011;10495;50.922;4.760;2023-03-09T10:19:04;37.97;;;17.27;;
20671;SDS011;10495;50.922;4.760;2023-03-09T10:24:25;43.47;;;22.23;;
20671;SDS011;10495;50.922;4.760;2023-03-09T10:26:59;39.03;;;18.00;;
20671;SDS011;10495;50.922;4.760;2023-03-09T10:32:07;40.43;;;21.30;;
20671;SDS011;10495;50.922;4.760;2023-03-09T10:34:57;40.37;;;18.40;;
20671;SDS011;10495;50.922;4.760;2023-03-09T10:37:32;40.87;;;21.70;;
20671;SDS011;10495;50.922;4.760;2023-03-09T10:40:00;31.93;;;16.53;;
20671;SDS011;10495;50.922;4.760;2023-03-09T10:42:32;47.07;;;22.33;;
20671;SDS011;10495;50.922;4.760;2023-03-09T10:45:15;42.67;;;21.50;;
20671;SDS011;10495;50.922;4.760;2023-03-09T10:50:26;40.00;;;17.97;;
20671;SDS011;10495;50.922;4.760;2023-03-09T10:52:54;44.07;;;19.47;;
20671;SDS011;10495;50.922;4.760;2023-03-09T10:58:12;42.40;;;20.27;;
20671;SDS011;10495;50.922;4.760;2023-03-09T11:03:31;41.33;;;21.03;;
20671;SDS011;10495;50.922;4.760;2023-03-09T11:06:23;51.77;;;27.87;;
20671;SDS011;10495;50.922;4.760;2023-03-09T11:08:57;46.07;;;21.93;;
20671;SDS011;10495;50.922;4.760;2023-03-09T11:11:31;43.50;;;19.03;;
20671;SDS011;10495;50.922;4.760;2023-03-09T11:13:57;39.93;;;21.80;;
20671;SDS011;10495;50.922;4.760;2023-03-09T11:16:24;32.37;;;15.63;;
20671;SDS011;10495;50.922;4.760;2023-03-09T11:19:04;42.83;;;20.40;;
20671;SDS011;10495;50.922;4.760;2023-03-09T11:21:39;38.70;;;17.53;;
20671;SDS011;10495;50.922;4.760;2023-03-09T11:24:13;36.43;;;19.23;;
20671;SDS011;10495;50.922;4.760;2023-03-09T11:27:02;38.07;;;18.43;;
20671;SDS011;10495;50.922;4.760;2023-03-09T11:32:26;46.00;;;24.40;;
20671;SDS011;10495;50.922;4.760;2023-03-09T11:34:52;35.80;;;18.30;;
20671;SDS011;10495;50.922;4.760;2023-03-09T11:40:03;42.37;;;19.73;;
20671;SDS011;10495;50.922;4.760;2023-03-09T11:45:24;41.07;;;19.60;;
20671;SDS011;10495;50.922;4.760;2023-03-09T11:47:55;43.90;;;19.90;;
20671;SDS011;10495;50.922;4.760;2023-03-09T11:50:24;38.17;;;18.83;;
20671;SDS011;10495;50.922;4.760;2023-03-09T11:53:02;45.90;;;23.23;;
20671;SDS011;10495;50.922;4.760;2023-03-09T11:55:40;52.37;;;27.13;;
20671;SDS011;10495;50.922;4.760;2023-03-09T11:58:09;38.70;;;20.33;;
20671;SDS011;10495;50.922;4.760;2023-03-09T12:00:41;36.60;;;18.10;;
20671;SDS011;10495;50.922;4.760;2023-03-09T12:03:14;42.13;;;18.83;;
20671;SDS011;10495;50.922;4.760;2023-03-09T12:05:43;41.80;;;19.23;;
20671;SDS011;10495;50.922;4.760;2023-03-09T12:10:51;38.83;;;18.33;;
20671;SDS011;10495;50.922;4.760;2023-03-09T12:16:02;45.03;;;20.00;;
20671;SDS011;10495;50.922;4.760;2023-03-09T12:21:38;41.53;;;20.30;;
20671;SDS011;10495;50.922;4.760;2023-03-09T12:26:57;45.90;;;20.43;;
20671;SDS011;10495;50.922;4.760;2023-03-09T12:29:38;51.07;;;21.73;;
20671;SDS011;10495;50.922;4.760;2023-03-09T12:32:17;43.73;;;21.47;;
20671;SDS011;10495;50.922;4.760;2023-03-09T12:34:43;44.30;;;20.07;;
20671;SDS011;10495;50.922;4.760;2023-03-09T12:40:39;39.27;;;18.40;;
20671;SDS011;10495;50.922;4.760;2023-03-09T12:45:39;36.07;;;18.03;;
20671;SDS011;10495;50.922;4.760;2023-03-09T13:03:17;33.30;;;17.73;;
20671;SDS011;10495;50.922;4.760;2023-03-09T13:05:48;35.30;;;16.80;;
20671;SDS011;10495;50.922;4.760;2023-03-09T13:08:22;28.97;;;15.10;;
20671;SDS011;10495;50.922;4.760;2023-03-09T13:11:19;28.37;;;12.80;;
20671;SDS011;10495;50.922;4.760;2023-03-09T13:14:04;32.47;;;16.27;;
20671;SDS011;10495;50.922;4.760;2023-03-09T13:16:39;27.30;;;15.00;;
20671;SDS011;10495;50.922;4.760;2023-03-09T13:24:23;34.47;;;12.33;;
20671;SDS011;10495;50.922;4.760;2023-03-09T13:26:56;26.67;;;9.30;;
20671;SDS011;10495;50.922;4.760;2023-03-09T13:29:57;30.43;;;8.40;;
20671;SDS011;10495;50.922;4.760;2023-03-09T13:35:38;24.73;;;5.40;;
20671;SDS011;10495;50.922;4.760;2023-03-09T13:38:13;26.20;;;4.90;;
20671;SDS011;10495;50.922;4.760;2023-03-09T13:40:49;21.83;;;4.23;;
20671;SDS011;10495;50.922;4.760;2023-03-09T13:43:19;17.03;;;4.83;;
20671;SDS011;10495;50.922;4.760;2023-03-09T13:46:34;18.63;;;4.97;;
20671;SDS011;10495;50.922;4.760;2023-03-09T13:48:53;18.00;;;4.80;;
20671;SDS011;10495;50.922;4.760;2023-03-09T13:51:22;20.80;;;4.73;;
20671;SDS011;10495;50.922;4.760;2023-03-09T13:53:51;16.73;;;3.90;;
20671;SDS011;10495;50.922;4.760;2023-03-09T13:56:16;24.83;;;4.93;;
20671;SDS011;10495;50.922;4.760;2023-03-09T13:58:43;13.87;;;3.57;;
20671;SDS011;10495;50.922;4.760;2023-03-09T14:01:20;20.20;;;4.57;;
20671;SDS011;10495;50.922;4.760;2023-03-09T14:03:55;26.20;;;3.73;;
20671;SDS011;10495;50.922;4.760;2023-03-09T14:06:32;23.10;;;4.57;;
20671;SDS011;10495;50.922;4.760;2023-03-09T14:09:20;14.03;;;3.77;;
20671;SDS011;10495;50.922;4.760;2023-03-09T14:11:52;22.53;;;4.00;;
20671;SDS011;10495;50.922;4.760;2023-03-09T14:14:18;18.17;;;4.17;;
20671;SDS011;10495;50.922;4.760;2023-03-09T14:16:47;19.43;;;4.10;;
20671;SDS011;10495;50.922;4.760;2023-03-09T14:19:36;17.83;;;3.80;;
20671;SDS011;10495;50.922;4.760;2023-03-09T14:22:01;13.20;;;3.33;;
20671;SDS011;10495;50.922;4.760;2023-03-09T14:24:31;19.77;;;3.80;;
20671;SDS011;10495;50.922;4.760;2023-03-09T14:27:11;9.70;;;2.70;;
20671;SDS011;10495;50.922;4.760;2023-03-09T14:29:37;17.03;;;3.23;;
20671;SDS011;10495;50.922;4.760;2023-03-09T14:32:16;22.07;;;4.03;;
20671;SDS011;10495;50.922;4.760;2023-03-09T14:34:53;11.73;;;3.57;;
20671;SDS011;10495;50.922;4.760;2023-03-09T14:37:25;18.83;;;3.60;;
20671;SDS011;10495;50.922;4.760;2023-03-09T14:39:56;13.77;;;4.50;;
20671;SDS011;10495;50.922;4.760;2023-03-09T14:42:30;16.67;;;3.13;;
20671;SDS011;10495;50.922;4.760;2023-03-09T14:44:59;18.25;;;4.43;;
20671;SDS011;10495;50.922;4.760;2023-03-09T14:47:35;12.10;;;3.33;;
20671;SDS011;10495;50.922;4.760;2023-03-09T14:50:02;16.07;;;3.63;;
20671;SDS011;10495;50.922;4.760;2023-03-09T14:52:29;14.10;;;3.90;;
20671;SDS011;10495;50.922;4.760;2023-03-09T14:54:58;20.30;;;3.60;;
20671;SDS011;10495;50.922;4.760;2023-03-09T14:57:27;14.23;;;3.27;;
20671;SDS011;10495;50.922;4.760;2023-03-09T14:59:53;14.47;;;3.60;;
20671;SDS011;10495;50.922;4.760;2023-03-09T15:02:19;18.53;;;3.60;;
20671;SDS011;10495;50.922;4.760;2023-03-09T15:04:45;11.13;;;3.13;;
20671;SDS011;10495;50.922;4.760;2023-03-09T15:07:13;15.17;;;2.87;;
20671;SDS011;10495;50.922;4.760;2023-03-09T15:09:40;19.43;;;3.07;;
20671;SDS011;10495;50.922;4.760;2023-03-09T15:12:15;17.50;;;4.33;;
20671;SDS011;10495;50.922;4.760;2023-03-09T15:14:45;18.97;;;4.17;;
20671;SDS011;10495;50.922;4.760;2023-03-09T15:17:13;14.47;;;3.40;;
20671;SDS011;10495;50.922;4.760;2023-03-09T15:19:40;15.33;;;4.87;;
20671;SDS011;10495;50.922;4.760;2023-03-09T15:22:13;15.37;;;3.20;;
20671;SDS011;10495;50.922;4.760;2023-03-09T15:24:41;14.80;;;3.73;;
20671;SDS011;10495;50.922;4.760;2023-03-09T15:27:08;18.97;;;4.30;;
20671;SDS011;10495;50.922;4.760;2023-03-09T15:29:35;16.43;;;4.10;;
20671;SDS011;10495;50.922;4.760;2023-03-09T15:32:02;16.50;;;3.50;;
20671;SDS011;10495;50.922;4.760;2023-03-09T15:34:32;12.43;;;3.17;;
20671;SDS011;10495;50.922;4.760;2023-03-09T15:37:01;15.70;;;3.30;;
20671;SDS011;10495;50.922;4.760;2023-03-09T15:39:27;13.17;;;3.53;;
20671;SDS011;10495;50.922;4.760;2023-03-09T15:41:53;16.10;;;4.50;;
20671;SDS011;10495;50.922;4.760;2023-03-09T15:44:19;9.80;;;3.47;;
20671;SDS011;10495;50.922;4.760;2023-03-09T15:46:44;10.53;;;3.17;;
20671;SDS011;10495;50.922;4.760;2023-03-09T15:49:10;16.53;;;3.23;;
20671;SDS011;10495;50.922;4.760;2023-03-09T15:51:36;12.80;;;3.33;;
20671;SDS011;10495;50.922;4.760;2023-03-09T15:54:02;14.40;;;4.10;;